sensor_id;sensor_type;location;lat;lon;timestamp;P1;durP1;ratioP1;P2;durP2;ratioP2
73693;SDS011;61997;53.974;11.670;2023-02-05T00:01:34;9.18;;;5.45;;
73693;SDS011;61997;53.974;11.670;2023-02-05T00:03:59;9.93;;;5.95;;
73693;SDS011;61997;53.974;11.670;2023-02-05T00:06:25;10.05;;;5.07;;
73693;SDS011;61997;53.974;11.670;2023-02-05T00:08:51;9.73;;;5.63;;
73693;SDS011;61997;53.974;11.670;2023-02-05T00:11:16;11.95;;;6.65;;
73693;SDS011;61997;53.974;11.670;2023-02-05T00:13:42;10.45;;;5.78;;
73693;SDS011;61997;53.974;11.670;2023-02-05T00:16:08;12.75;;;7.13;;
73693;SDS011;61997;53.974;11.670;2023-02-05T00:18:37;12.65;;;7.00;;
73693;SDS011;61997;53.974;11.670;2023-02-05T00:21:10;12.40;;;6.93;;
73693;SDS011;61997;53.974;11.670;2023-02-05T00:23:36;16.38;;;7.55;;
73693;SDS011;61997;53.974;11.670;2023-02-05T00:26:03;12.90;;;7.53;;
73693;SDS011;61997;53.974;11.670;2023-02-05T00:28:35;15.77;;;8.35;;
73693;SDS011;61997;53.974;11.670;2023-02-05T00:31:06;15.82;;;8.93;;
73693;SDS011;61997;53.974;11.670;2023-02-05T00:33:33;17.95;;;8.85;;
73693;SDS011;61997;53.974;11.670;2023-02-05T00:36:00;16.25;;;8.55;;
73693;SDS011;61997;53.974;11.670;2023-02-05T00:38:28;15.73;;;7.88;;
73693;SDS011;61997;53.974;11.670;2023-02-05T00:40:54;15.57;;;8.02;;
73693;SDS011;61997;53.974;11.670;2023-02-05T00:43:21;14.88;;;9.18;;
73693;SDS011;61997;53.974;11.670;2023-02-05T00:45:47;17.00;;;9.32;;
73693;SDS011;61997;53.974;11.670;2023-02-05T00:48:14;17.30;;;8.40;;
73693;SDS011;61997;53.974;11.670;2023-02-05T00:50:40;17.25;;;9.00;;
73693;SDS011;61997;53.974;11.670;2023-02-05T00:53:06;14.40;;;8.45;;
73693;SDS011;61997;53.974;11.670;2023-02-05T00:55:32;17.02;;;8.90;;
73693;SDS011;61997;53.974;11.670;2023-02-05T00:57:59;17.52;;;9.45;;
73693;SDS011;61997;53.974;11.670;2023-02-05T01:00:26;19.65;;;8.40;;
73693;SDS011;61997;53.974;11.670;2023-02-05T01:02:53;19.30;;;8.00;;
73693;SDS011;61997;53.974;11.670;2023-02-05T01:05:19;17.02;;;9.23;;
73693;SDS011;61997;53.974;11.670;2023-02-05T01:07:46;13.45;;;7.78;;
73693;SDS011;61997;53.974;11.670;2023-02-05T01:10:13;16.55;;;8.13;;
73693;SDS011;61997;53.974;11.670;2023-02-05T01:12:40;17.92;;;9.82;;
73693;SDS011;61997;53.974;11.670;2023-02-05T01:15:07;14.88;;;8.20;;
73693;SDS011;61997;53.974;11.670;2023-02-05T01:17:33;13.82;;;7.97;;
73693;SDS011;61997;53.974;11.670;2023-02-05T01:19:59;16.63;;;8.00;;
73693;SDS011;61997;53.974;11.670;2023-02-05T01:22:25;15.50;;;8.27;;
73693;SDS011;61997;53.974;11.670;2023-02-05T01:24:51;16.67;;;8.13;;
73693;SDS011;61997;53.974;11.670;2023-02-05T01:27:17;19.52;;;8.80;;
73693;SDS011;61997;53.974;11.670;2023-02-05T01:29:44;15.27;;;7.30;;
73693;SDS011;61997;53.974;11.670;2023-02-05T01:32:11;15.95;;;7.65;;
73693;SDS011;61997;53.974;11.670;2023-02-05T01:34:40;13.45;;;7.13;;
73693;SDS011;61997;53.974;11.670;2023-02-05T01:37:06;15.82;;;8.52;;
73693;SDS011;61997;53.974;11.670;2023-02-05T01:39:35;14.55;;;7.30;;
73693;SDS011;61997;53.974;11.670;2023-02-05T01:42:02;15.43;;;8.55;;
73693;SDS011;61997;53.974;11.670;2023-02-05T01:44:29;12.30;;;7.25;;
73693;SDS011;61997;53.974;11.670;2023-02-05T01:46:55;15.45;;;7.38;;
73693;SDS011;61997;53.974;11.670;2023-02-05T01:49:34;15.55;;;8.13;;
73693;SDS011;61997;53.974;11.670;2023-02-05T01:52:03;16.75;;;7.70;;
73693;SDS011;61997;53.974;11.670;2023-02-05T01:54:31;15.52;;;7.63;;
73693;SDS011;61997;53.974;11.670;2023-02-05T01:57:02;14.95;;;7.40;;
73693;SDS011;61997;53.974;11.670;2023-02-05T01:59:32;14.95;;;7.68;;
73693;SDS011;61997;53.974;11.670;2023-02-05T02:02:00;13.13;;;7.40;;
73693;SDS011;61997;53.974;11.670;2023-02-05T02:04:39;13.88;;;6.95;;
73693;SDS011;61997;53.974;11.670;2023-02-05T02:07:12;14.70;;;7.30;;
73693;SDS011;61997;53.974;11.670;2023-02-05T02:09:39;18.58;;;8.18;;
73693;SDS011;61997;53.974;11.670;2023-02-05T02:12:07;13.57;;;7.05;;
73693;SDS011;61997;53.974;11.670;2023-02-05T02:14:33;14.57;;;7.55;;
73693;SDS011;61997;53.974;11.670;2023-02-05T02:17:00;12.50;;;7.60;;
73693;SDS011;61997;53.974;11.670;2023-02-05T02:19:31;12.95;;;6.78;;
73693;SDS011;61997;53.974;11.670;2023-02-05T02:25:00;12.00;;;7.13;;
73693;SDS011;61997;53.974;11.670;2023-02-05T02:30:08;12.77;;;7.32;;
73693;SDS011;61997;53.974;11.670;2023-02-05T02:32:52;14.70;;;8.02;;
73693;SDS011;61997;53.974;11.670;2023-02-05T02:38:21;13.35;;;6.82;;
73693;SDS011;61997;53.974;11.670;2023-02-05T02:40:49;11.85;;;7.03;;
73693;SDS011;61997;53.974;11.670;2023-02-05T02:43:37;14.52;;;6.60;;
73693;SDS011;61997;53.974;11.670;2023-02-05T02:46:11;14.90;;;7.32;;
73693;SDS011;61997;53.974;11.670;2023-02-05T02:48:42;13.73;;;7.15;;
73693;SDS011;61997;53.974;11.670;2023-02-05T02:51:08;16.00;;;7.45;;
73693;SDS011;61997;53.974;11.670;2023-02-05T02:53:37;15.57;;;7.20;;
73693;SDS011;61997;53.974;11.670;2023-02-05T02:56:06;14.07;;;6.50;;
73693;SDS011;61997;53.974;11.670;2023-02-05T02:58:34;14.32;;;6.32;;
73693;SDS011;61997;53.974;11.670;2023-02-05T03:01:03;12.57;;;6.05;;
73693;SDS011;61997;53.974;11.670;2023-02-05T03:03:29;14.57;;;6.97;;
73693;SDS011;61997;53.974;11.670;2023-02-05T03:05:57;13.90;;;7.18;;
73693;SDS011;61997;53.974;11.670;2023-02-05T03:08:26;12.73;;;6.88;;
73693;SDS011;61997;53.974;11.670;2023-02-05T03:10:59;12.48;;;6.88;;
73693;SDS011;61997;53.974;11.670;2023-02-05T03:13:26;12.05;;;6.63;;
73693;SDS011;61997;53.974;11.670;2023-02-05T03:15:52;11.88;;;5.85;;
73693;SDS011;61997;53.974;11.670;2023-02-05T03:18:17;11.70;;;6.28;;
73693;SDS011;61997;53.974;11.670;2023-02-05T03:20:53;13.30;;;6.78;;
73693;SDS011;61997;53.974;11.670;2023-02-05T03:23:20;10.18;;;5.70;;
73693;SDS011;61997;53.974;11.670;2023-02-05T03:25:46;14.43;;;6.65;;
73693;SDS011;61997;53.974;11.670;2023-02-05T03:28:12;10.75;;;5.63;;
73693;SDS011;61997;53.974;11.670;2023-02-05T03:30:40;12.43;;;6.93;;
73693;SDS011;61997;53.974;11.670;2023-02-05T03:36:24;10.75;;;5.32;;
73693;SDS011;61997;53.974;11.670;2023-02-05T03:44:24;9.68;;;5.32;;
73693;SDS011;61997;53.974;11.670;2023-02-05T03:47:00;9.88;;;5.40;;
73693;SDS011;61997;53.974;11.670;2023-02-05T03:49:36;11.95;;;5.60;;
73693;SDS011;61997;53.974;11.670;2023-02-05T03:52:16;9.30;;;5.30;;
73693;SDS011;61997;53.974;11.670;2023-02-05T03:57:30;10.70;;;5.38;;
73693;SDS011;61997;53.974;11.670;2023-02-05T03:59:57;11.05;;;5.38;;
73693;SDS011;61997;53.974;11.670;2023-02-05T04:02:23;11.35;;;5.03;;
73693;SDS011;61997;53.974;11.670;2023-02-05T04:04:49;11.95;;;5.43;;
73693;SDS011;61997;53.974;11.670;2023-02-05T04:07:14;11.10;;;4.72;;
73693;SDS011;61997;53.974;11.670;2023-02-05T04:09:39;8.73;;;4.88;;
73693;SDS011;61997;53.974;11.670;2023-02-05T04:12:05;10.85;;;4.85;;
73693;SDS011;61997;53.974;11.670;2023-02-05T04:14:30;10.48;;;5.22;;
73693;SDS011;61997;53.974;11.670;2023-02-05T04:16:56;11.63;;;5.20;;
73693;SDS011;61997;53.974;11.670;2023-02-05T04:19:21;10.63;;;5.50;;
73693;SDS011;61997;53.974;11.670;2023-02-05T04:21:46;10.73;;;4.72;;
73693;SDS011;61997;53.974;11.670;2023-02-05T04:24:12;7.32;;;4.25;;
73693;SDS011;61997;53.974;11.670;2023-02-05T04:26:37;11.43;;;4.60;;
73693;SDS011;61997;53.974;11.670;2023-02-05T04:29:02;9.35;;;4.30;;
73693;SDS011;61997;53.974;11.670;2023-02-05T04:31:28;10.10;;;4.55;;
73693;SDS011;61997;53.974;11.670;2023-02-05T04:33:53;8.07;;;4.40;;
73693;SDS011;61997;53.974;11.670;2023-02-05T04:36:18;8.27;;;4.50;;
73693;SDS011;61997;53.974;11.670;2023-02-05T04:38:44;7.10;;;3.67;;
73693;SDS011;61997;53.974;11.670;2023-02-05T04:41:09;8.35;;;4.28;;
73693;SDS011;61997;53.974;11.670;2023-02-05T04:43:34;7.25;;;3.80;;
73693;SDS011;61997;53.974;11.670;2023-02-05T04:46:05;7.13;;;3.90;;
73693;SDS011;61997;53.974;11.670;2023-02-05T04:48:32;6.97;;;3.47;;
73693;SDS011;61997;53.974;11.670;2023-02-05T04:50:57;7.25;;;3.25;;
73693;SDS011;61997;53.974;11.670;2023-02-05T04:53:24;8.75;;;3.90;;
73693;SDS011;61997;53.974;11.670;2023-02-05T04:55:49;5.75;;;3.30;;
73693;SDS011;61997;53.974;11.670;2023-02-05T04:58:14;7.32;;;3.92;;
73693;SDS011;61997;53.974;11.670;2023-02-05T05:00:40;6.88;;;3.60;;
73693;SDS011;61997;53.974;11.670;2023-02-05T05:03:05;8.15;;;3.55;;
73693;SDS011;61997;53.974;11.670;2023-02-05T05:05:30;5.65;;;3.90;;
73693;SDS011;61997;53.974;11.670;2023-02-05T05:07:58;8.15;;;3.33;;
73693;SDS011;61997;53.974;11.670;2023-02-05T05:10:24;8.63;;;3.75;;
73693;SDS011;61997;53.974;11.670;2023-02-05T05:12:50;6.80;;;3.03;;
73693;SDS011;61997;53.974;11.670;2023-02-05T05:15:17;8.23;;;3.65;;
73693;SDS011;61997;53.974;11.670;2023-02-05T05:17:42;7.00;;;3.30;;
73693;SDS011;61997;53.974;11.670;2023-02-05T05:20:08;5.75;;;2.95;;
73693;SDS011;61997;53.974;11.670;2023-02-05T05:22:34;6.95;;;3.63;;
73693;SDS011;61997;53.974;11.670;2023-02-05T05:24:59;6.95;;;3.50;;
73693;SDS011;61997;53.974;11.670;2023-02-05T05:27:24;6.55;;;3.40;;
73693;SDS011;61997;53.974;11.670;2023-02-05T05:29:50;6.45;;;3.53;;
73693;SDS011;61997;53.974;11.670;2023-02-05T05:32:15;6.63;;;3.50;;
73693;SDS011;61997;53.974;11.670;2023-02-05T05:34:40;5.88;;;2.97;;
73693;SDS011;61997;53.974;11.670;2023-02-05T05:37:06;6.38;;;3.30;;
73693;SDS011;61997;53.974;11.670;2023-02-05T05:39:31;5.68;;;3.00;;
73693;SDS011;61997;53.974;11.670;2023-02-05T05:42:15;6.57;;;3.15;;
73693;SDS011;61997;53.974;11.670;2023-02-05T05:44:59;4.15;;;2.85;;
73693;SDS011;61997;53.974;11.670;2023-02-05T05:47:24;5.55;;;2.90;;
73693;SDS011;61997;53.974;11.670;2023-02-05T05:49:50;6.18;;;2.97;;
73693;SDS011;61997;53.974;11.670;2023-02-05T05:52:15;6.80;;;2.80;;
73693;SDS011;61997;53.974;11.670;2023-02-05T05:54:40;6.55;;;2.70;;
73693;SDS011;61997;53.974;11.670;2023-02-05T05:57:06;4.70;;;2.60;;
73693;SDS011;61997;53.974;11.670;2023-02-05T05:59:32;4.97;;;2.45;;
73693;SDS011;61997;53.974;11.670;2023-02-05T06:01:59;5.22;;;2.67;;
73693;SDS011;61997;53.974;11.670;2023-02-05T06:04:25;5.45;;;2.85;;
73693;SDS011;61997;53.974;11.670;2023-02-05T06:06:51;4.57;;;2.28;;
73693;SDS011;61997;53.974;11.670;2023-02-05T06:09:16;4.43;;;2.53;;
73693;SDS011;61997;53.974;11.670;2023-02-05T06:11:41;6.07;;;2.58;;
73693;SDS011;61997;53.974;11.670;2023-02-05T06:14:07;4.10;;;2.30;;
73693;SDS011;61997;53.974;11.670;2023-02-05T06:16:32;4.43;;;1.90;;
73693;SDS011;61997;53.974;11.670;2023-02-05T06:18:57;4.93;;;2.17;;
73693;SDS011;61997;53.974;11.670;2023-02-05T06:21:23;5.78;;;2.30;;
73693;SDS011;61997;53.974;11.670;2023-02-05T06:23:48;4.25;;;2.25;;
73693;SDS011;61997;53.974;11.670;2023-02-05T06:26:14;4.78;;;2.20;;
73693;SDS011;61997;53.974;11.670;2023-02-05T06:28:39;4.93;;;2.13;;
73693;SDS011;61997;53.974;11.670;2023-02-05T06:31:05;6.85;;;2.40;;
73693;SDS011;61997;53.974;11.670;2023-02-05T06:33:30;5.10;;;2.70;;
73693;SDS011;61997;53.974;11.670;2023-02-05T06:35:55;5.40;;;2.03;;
73693;SDS011;61997;53.974;11.670;2023-02-05T06:38:21;3.75;;;2.13;;
73693;SDS011;61997;53.974;11.670;2023-02-05T06:40:47;4.15;;;2.35;;
73693;SDS011;61997;53.974;11.670;2023-02-05T06:43:12;4.80;;;2.53;;
73693;SDS011;61997;53.974;11.670;2023-02-05T06:45:38;4.50;;;2.20;;
73693;SDS011;61997;53.974;11.670;2023-02-05T06:48:03;5.63;;;2.20;;
73693;SDS011;61997;53.974;11.670;2023-02-05T06:50:29;3.72;;;2.03;;
73693;SDS011;61997;53.974;11.670;2023-02-05T06:52:54;3.65;;;1.85;;
73693;SDS011;61997;53.974;11.670;2023-02-05T06:55:20;5.40;;;1.75;;
73693;SDS011;61997;53.974;11.670;2023-02-05T06:57:45;4.90;;;1.95;;
73693;SDS011;61997;53.974;11.670;2023-02-05T07:00:11;3.83;;;1.90;;
73693;SDS011;61997;53.974;11.670;2023-02-05T07:02:36;3.80;;;1.98;;
73693;SDS011;61997;53.974;11.670;2023-02-05T07:05:02;4.18;;;1.83;;
73693;SDS011;61997;53.974;11.670;2023-02-05T07:07:27;3.20;;;1.80;;
73693;SDS011;61997;53.974;11.670;2023-02-05T07:09:53;4.22;;;1.77;;
73693;SDS011;61997;53.974;11.670;2023-02-05T07:12:18;3.20;;;1.60;;
73693;SDS011;61997;53.974;11.670;2023-02-05T07:14:43;3.50;;;1.60;;
73693;SDS011;61997;53.974;11.670;2023-02-05T07:17:09;3.30;;;1.63;;
73693;SDS011;61997;53.974;11.670;2023-02-05T07:19:34;3.20;;;1.48;;
73693;SDS011;61997;53.974;11.670;2023-02-05T07:22:00;3.88;;;1.90;;
73693;SDS011;61997;53.974;11.670;2023-02-05T07:24:25;3.58;;;1.85;;
73693;SDS011;61997;53.974;11.670;2023-02-05T07:26:51;3.70;;;1.73;;
73693;SDS011;61997;53.974;11.670;2023-02-05T07:29:16;3.33;;;1.80;;
73693;SDS011;61997;53.974;11.670;2023-02-05T07:31:42;3.05;;;1.63;;
73693;SDS011;61997;53.974;11.670;2023-02-05T07:34:07;3.15;;;1.52;;
73693;SDS011;61997;53.974;11.670;2023-02-05T07:36:32;2.22;;;1.40;;
73693;SDS011;61997;53.974;11.670;2023-02-05T07:38:58;2.58;;;1.33;;
73693;SDS011;61997;53.974;11.670;2023-02-05T07:41:23;2.88;;;1.80;;
73693;SDS011;61997;53.974;11.670;2023-02-05T07:43:50;3.00;;;1.52;;
73693;SDS011;61997;53.974;11.670;2023-02-05T07:46:17;3.95;;;1.65;;
73693;SDS011;61997;53.974;11.670;2023-02-05T07:48:43;2.63;;;1.50;;
73693;SDS011;61997;53.974;11.670;2023-02-05T07:51:11;2.83;;;1.77;;
73693;SDS011;61997;53.974;11.670;2023-02-05T07:53:43;3.10;;;1.60;;
73693;SDS011;61997;53.974;11.670;2023-02-05T07:56:09;3.28;;;1.40;;
73693;SDS011;61997;53.974;11.670;2023-02-05T07:58:35;3.72;;;1.35;;
73693;SDS011;61997;53.974;11.670;2023-02-05T08:01:00;3.00;;;1.15;;
73693;SDS011;61997;53.974;11.670;2023-02-05T08:03:29;2.50;;;1.25;;
73693;SDS011;61997;53.974;11.670;2023-02-05T08:05:55;3.00;;;1.63;;
73693;SDS011;61997;53.974;11.670;2023-02-05T08:08:21;2.42;;;1.45;;
73693;SDS011;61997;53.974;11.670;2023-02-05T08:10:46;2.83;;;1.40;;
73693;SDS011;61997;53.974;11.670;2023-02-05T08:13:12;2.47;;;1.13;;
73693;SDS011;61997;53.974;11.670;2023-02-05T08:15:38;2.78;;;1.30;;
73693;SDS011;61997;53.974;11.670;2023-02-05T08:18:04;2.40;;;1.35;;
73693;SDS011;61997;53.974;11.670;2023-02-05T08:20:29;3.05;;;1.40;;
73693;SDS011;61997;53.974;11.670;2023-02-05T08:22:54;2.70;;;1.13;;
73693;SDS011;61997;53.974;11.670;2023-02-05T08:25:20;2.72;;;1.45;;
73693;SDS011;61997;53.974;11.670;2023-02-05T08:27:45;2.78;;;1.30;;
73693;SDS011;61997;53.974;11.670;2023-02-05T08:30:13;3.13;;;1.17;;
73693;SDS011;61997;53.974;11.670;2023-02-05T08:32:40;2.42;;;1.10;;
73693;SDS011;61997;53.974;11.670;2023-02-05T08:35:05;3.30;;;1.58;;
73693;SDS011;61997;53.974;11.670;2023-02-05T08:37:31;2.33;;;1.40;;
73693;SDS011;61997;53.974;11.670;2023-02-05T08:39:58;2.17;;;1.20;;
73693;SDS011;61997;53.974;11.670;2023-02-05T08:42:23;2.03;;;1.10;;
73693;SDS011;61997;53.974;11.670;2023-02-05T08:44:49;1.98;;;1.02;;
73693;SDS011;61997;53.974;11.670;2023-02-05T08:47:17;2.53;;;1.20;;
73693;SDS011;61997;53.974;11.670;2023-02-05T08:49:43;2.25;;;0.98;;
73693;SDS011;61997;53.974;11.670;2023-02-05T08:52:08;2.40;;;0.95;;
73693;SDS011;61997;53.974;11.670;2023-02-05T08:54:34;2.80;;;1.38;;
73693;SDS011;61997;53.974;11.670;2023-02-05T08:56:59;2.83;;;1.20;;
73693;SDS011;61997;53.974;11.670;2023-02-05T08:59:25;2.15;;;1.20;;
73693;SDS011;61997;53.974;11.670;2023-02-05T09:01:50;2.67;;;1.17;;
73693;SDS011;61997;53.974;11.670;2023-02-05T09:04:16;1.88;;;1.05;;
73693;SDS011;61997;53.974;11.670;2023-02-05T09:06:43;2.75;;;1.15;;
73693;SDS011;61997;53.974;11.670;2023-02-05T09:09:09;3.58;;;0.93;;
73693;SDS011;61997;53.974;11.670;2023-02-05T09:11:35;3.17;;;1.23;;
73693;SDS011;61997;53.974;11.670;2023-02-05T09:14:01;2.05;;;1.02;;
73693;SDS011;61997;53.974;11.670;2023-02-05T09:16:26;3.35;;;1.10;;
73693;SDS011;61997;53.974;11.670;2023-02-05T09:18:53;5.78;;;1.52;;
73693;SDS011;61997;53.974;11.670;2023-02-05T09:21:19;2.78;;;1.00;;
73693;SDS011;61997;53.974;11.670;2023-02-05T09:23:45;2.63;;;1.00;;
73693;SDS011;61997;53.974;11.670;2023-02-05T09:26:11;4.28;;;1.05;;
73693;SDS011;61997;53.974;11.670;2023-02-05T09:28:36;2.65;;;1.38;;
73693;SDS011;61997;53.974;11.670;2023-02-05T09:31:06;2.92;;;1.25;;
73693;SDS011;61997;53.974;11.670;2023-02-05T09:33:39;3.20;;;1.02;;
73693;SDS011;61997;53.974;11.670;2023-02-05T09:36:08;3.33;;;1.10;;
73693;SDS011;61997;53.974;11.670;2023-02-05T09:38:36;2.90;;;1.10;;
73693;SDS011;61997;53.974;11.670;2023-02-05T09:43:56;1.88;;;1.02;;
73693;SDS011;61997;53.974;11.670;2023-02-05T09:49:01;3.17;;;1.00;;
73693;SDS011;61997;53.974;11.670;2023-02-05T09:51:34;2.55;;;1.02;;
73693;SDS011;61997;53.974;11.670;2023-02-05T09:54:12;4.45;;;1.58;;
73693;SDS011;61997;53.974;11.670;2023-02-05T09:56:41;2.78;;;1.20;;
73693;SDS011;61997;53.974;11.670;2023-02-05T09:59:09;1.88;;;0.80;;
73693;SDS011;61997;53.974;11.670;2023-02-05T10:01:40;3.00;;;0.95;;
73693;SDS011;61997;53.974;11.670;2023-02-05T10:04:09;2.45;;;0.90;;
73693;SDS011;61997;53.974;11.670;2023-02-05T10:15:31;3.80;;;1.90;;
73693;SDS011;61997;53.974;11.670;2023-02-05T10:27:09;2.75;;;0.77;;
73693;SDS011;61997;53.974;11.670;2023-02-05T10:32:21;4.53;;;1.17;;
73693;SDS011;61997;53.974;11.670;2023-02-05T10:37:19;2.67;;;1.10;;
73693;SDS011;61997;53.974;11.670;2023-02-05T10:39:45;4.30;;;1.30;;
73693;SDS011;61997;53.974;11.670;2023-02-05T10:42:21;4.32;;;1.38;;
73693;SDS011;61997;53.974;11.670;2023-02-05T10:52:51;3.42;;;1.23;;
73693;SDS011;61997;53.974;11.670;2023-02-05T10:55:16;4.43;;;1.75;;
73693;SDS011;61997;53.974;11.670;2023-02-05T10:57:42;4.60;;;1.08;;
73693;SDS011;61997;53.974;11.670;2023-02-05T11:00:12;2.95;;;1.60;;
73693;SDS011;61997;53.974;11.670;2023-02-05T11:02:40;6.57;;;1.58;;
73693;SDS011;61997;53.974;11.670;2023-02-05T11:05:15;5.70;;;2.03;;
73693;SDS011;61997;53.974;11.670;2023-02-05T11:07:55;2.95;;;1.33;;
73693;SDS011;61997;53.974;11.670;2023-02-05T11:10:21;7.63;;;2.08;;
73693;SDS011;61997;53.974;11.670;2023-02-05T11:13:02;6.10;;;2.08;;
73693;SDS011;61997;53.974;11.670;2023-02-05T11:15:37;5.90;;;1.52;;
73693;SDS011;61997;53.974;11.670;2023-02-05T11:18:38;7.65;;;2.33;;
73693;SDS011;61997;53.974;11.670;2023-02-05T11:21:05;5.57;;;1.77;;
73693;SDS011;61997;53.974;11.670;2023-02-05T11:23:33;5.40;;;1.92;;
73693;SDS011;61997;53.974;11.670;2023-02-05T11:26:17;7.63;;;2.17;;
73693;SDS011;61997;53.974;11.670;2023-02-05T11:28:47;11.30;;;2.20;;
73693;SDS011;61997;53.974;11.670;2023-02-05T11:31:25;5.13;;;1.55;;
73693;SDS011;61997;53.974;11.670;2023-02-05T11:34:14;4.78;;;2.05;;
73693;SDS011;61997;53.974;11.670;2023-02-05T11:36:56;5.03;;;2.05;;
73693;SDS011;61997;53.974;11.670;2023-02-05T11:42:21;9.90;;;2.10;;
73693;SDS011;61997;53.974;11.670;2023-02-05T11:44:51;7.65;;;2.40;;
73693;SDS011;61997;53.974;11.670;2023-02-05T11:47:34;10.95;;;2.25;;
73693;SDS011;61997;53.974;11.670;2023-02-05T11:50:03;5.70;;;2.40;;
73693;SDS011;61997;53.974;11.670;2023-02-05T11:52:31;9.95;;;2.92;;
73693;SDS011;61997;53.974;11.670;2023-02-05T11:54:59;8.57;;;3.05;;
73693;SDS011;61997;53.974;11.670;2023-02-05T12:00:00;8.73;;;3.47;;
73693;SDS011;61997;53.974;11.670;2023-02-05T12:02:40;11.65;;;3.30;;
73693;SDS011;61997;53.974;11.670;2023-02-05T12:10:35;6.45;;;3.03;;
73693;SDS011;61997;53.974;11.670;2023-02-05T12:13:05;12.63;;;3.90;;
73693;SDS011;61997;53.974;11.670;2023-02-05T12:16:21;8.32;;;3.42;;
73693;SDS011;61997;53.974;11.670;2023-02-05T12:21:15;7.32;;;3.47;;
73693;SDS011;61997;53.974;11.670;2023-02-05T12:26:46;10.77;;;4.13;;
73693;SDS011;61997;53.974;11.670;2023-02-05T12:29:25;8.95;;;4.47;;
73693;SDS011;61997;53.974;11.670;2023-02-05T12:32:12;13.02;;;4.93;;
73693;SDS011;61997;53.974;11.670;2023-02-05T12:35:10;11.75;;;5.60;;
73693;SDS011;61997;53.974;11.670;2023-02-05T12:45:37;14.35;;;7.90;;
73693;SDS011;61997;53.974;11.670;2023-02-05T12:48:22;13.40;;;8.38;;
73693;SDS011;61997;53.974;11.670;2023-02-05T12:54:49;16.10;;;8.18;;
73693;SDS011;61997;53.974;11.670;2023-02-05T12:56:57;20.42;;;9.45;;
73693;SDS011;61997;53.974;11.670;2023-02-05T12:59:29;18.80;;;9.98;;
73693;SDS011;61997;53.974;11.670;2023-02-05T13:02:10;14.10;;;8.00;;
73693;SDS011;61997;53.974;11.670;2023-02-05T13:04:42;18.17;;;10.13;;
73693;SDS011;61997;53.974;11.670;2023-02-05T13:07:25;17.15;;;9.35;;
73693;SDS011;61997;53.974;11.670;2023-02-05T13:12:22;20.35;;;10.10;;
73693;SDS011;61997;53.974;11.670;2023-02-05T13:17:33;16.08;;;8.65;;
73693;SDS011;61997;53.974;11.670;2023-02-05T13:20:02;18.45;;;10.13;;
73693;SDS011;61997;53.974;11.670;2023-02-05T13:22:34;14.98;;;9.48;;
73693;SDS011;61997;53.974;11.670;2023-02-05T13:25:27;19.40;;;9.88;;
73693;SDS011;61997;53.974;11.670;2023-02-05T13:31:04;17.42;;;9.20;;
73693;SDS011;61997;53.974;11.670;2023-02-05T13:33:33;15.95;;;8.98;;
73693;SDS011;61997;53.974;11.670;2023-02-05T13:41:59;15.40;;;8.82;;
73693;SDS011;61997;53.974;11.670;2023-02-05T14:00:30;14.98;;;8.20;;
73693;SDS011;61997;53.974;11.670;2023-02-05T14:02:56;14.48;;;7.75;;
73693;SDS011;61997;53.974;11.670;2023-02-05T14:05:27;14.63;;;8.07;;
73693;SDS011;61997;53.974;11.670;2023-02-05T14:07:53;14.57;;;7.07;;
73693;SDS011;61997;53.974;11.670;2023-02-05T14:10:34;14.95;;;8.77;;
73693;SDS011;61997;53.974;11.670;2023-02-05T14:15:38;10.82;;;6.97;;
73693;SDS011;61997;53.974;11.670;2023-02-05T14:18:09;15.32;;;7.80;;
73693;SDS011;61997;53.974;11.670;2023-02-05T14:20:41;10.25;;;7.35;;
73693;SDS011;61997;53.974;11.670;2023-02-05T14:23:13;11.77;;;7.63;;
73693;SDS011;61997;53.974;11.670;2023-02-05T14:25:59;12.18;;;6.93;;
73693;SDS011;61997;53.974;11.670;2023-02-05T14:30:59;14.35;;;8.48;;
73693;SDS011;61997;53.974;11.670;2023-02-05T14:33:40;13.93;;;7.65;;
73693;SDS011;61997;53.974;11.670;2023-02-05T14:39:03;13.63;;;7.25;;
73693;SDS011;61997;53.974;11.670;2023-02-05T14:41:29;13.38;;;7.75;;
73693;SDS011;61997;53.974;11.670;2023-02-05T14:44:01;15.60;;;7.90;;
73693;SDS011;61997;53.974;11.670;2023-02-05T14:49:02;15.43;;;9.77;;
73693;SDS011;61997;53.974;11.670;2023-02-05T14:51:31;18.90;;;9.20;;
73693;SDS011;61997;53.974;11.670;2023-02-05T14:54:03;19.00;;;9.05;;
73693;SDS011;61997;53.974;11.670;2023-02-05T14:56:41;18.42;;;9.27;;
73693;SDS011;61997;53.974;11.670;2023-02-05T14:59:24;18.08;;;9.60;;
73693;SDS011;61997;53.974;11.670;2023-02-05T15:01:55;17.52;;;9.48;;
73693;SDS011;61997;53.974;11.670;2023-02-05T15:04:36;16.88;;;9.85;;
73693;SDS011;61997;53.974;11.670;2023-02-05T15:07:11;17.88;;;8.70;;
73693;SDS011;61997;53.974;11.670;2023-02-05T15:14:38;15.98;;;9.52;;
73693;SDS011;61997;53.974;11.670;2023-02-05T15:19:41;15.90;;;8.15;;
73693;SDS011;61997;53.974;11.670;2023-02-05T15:22:16;12.32;;;6.63;;
73693;SDS011;61997;53.974;11.670;2023-02-05T15:24:52;12.02;;;7.18;;
73693;SDS011;61997;53.974;11.670;2023-02-05T15:27:20;13.93;;;6.90;;
73693;SDS011;61997;53.974;11.670;2023-02-05T15:29:49;11.30;;;6.20;;
73693;SDS011;61997;53.974;11.670;2023-02-05T15:34:59;12.25;;;6.85;;
73693;SDS011;61997;53.974;11.670;2023-02-05T15:37:35;10.95;;;6.22;;
73693;SDS011;61997;53.974;11.670;2023-02-05T15:40:38;15.70;;;6.22;;
73693;SDS011;61997;53.974;11.670;2023-02-05T15:42:57;12.40;;;5.88;;
73693;SDS011;61997;53.974;11.670;2023-02-05T15:45:25;11.52;;;5.70;;
73693;SDS011;61997;53.974;11.670;2023-02-05T15:47:56;9.77;;;4.80;;
73693;SDS011;61997;53.974;11.670;2023-02-05T15:50:22;12.13;;;5.88;;
73693;SDS011;61997;53.974;11.670;2023-02-05T15:52:47;12.10;;;5.75;;
73693;SDS011;61997;53.974;11.670;2023-02-05T15:55:15;11.50;;;5.65;;
73693;SDS011;61997;53.974;11.670;2023-02-05T15:57:43;10.05;;;5.88;;
73693;SDS011;61997;53.974;11.670;2023-02-05T16:00:09;10.20;;;5.00;;
73693;SDS011;61997;53.974;11.670;2023-02-05T16:02:43;10.30;;;5.03;;
73693;SDS011;61997;53.974;11.670;2023-02-05T16:05:20;10.18;;;5.18;;
73693;SDS011;61997;53.974;11.670;2023-02-05T16:07:47;9.82;;;5.13;;
73693;SDS011;61997;53.974;11.670;2023-02-05T16:10:22;8.43;;;5.07;;
73693;SDS011;61997;53.974;11.670;2023-02-05T16:13:11;8.85;;;5.05;;
73693;SDS011;61997;53.974;11.670;2023-02-05T16:18:05;8.02;;;4.28;;
73693;SDS011;61997;53.974;11.670;2023-02-05T16:20:36;8.50;;;4.20;;
73693;SDS011;61997;53.974;11.670;2023-02-05T16:23:40;9.07;;;4.65;;
73693;SDS011;61997;53.974;11.670;2023-02-05T16:27:03;9.95;;;4.28;;
73693;SDS011;61997;53.974;11.670;2023-02-05T16:29:03;10.25;;;4.53;;
73693;SDS011;61997;53.974;11.670;2023-02-05T16:31:30;9.27;;;4.55;;
73693;SDS011;61997;53.974;11.670;2023-02-05T16:34:00;10.25;;;4.88;;
73693;SDS011;61997;53.974;11.670;2023-02-05T16:36:38;10.98;;;4.78;;
73693;SDS011;61997;53.974;11.670;2023-02-05T16:39:06;11.32;;;5.70;;
73693;SDS011;61997;53.974;11.670;2023-02-05T16:41:42;7.43;;;4.88;;
73693;SDS011;61997;53.974;11.670;2023-02-05T16:44:08;9.68;;;5.50;;
73693;SDS011;61997;53.974;11.670;2023-02-05T16:47:03;10.80;;;5.93;;
73693;SDS011;61997;53.974;11.670;2023-02-05T16:49:31;13.70;;;7.05;;
73693;SDS011;61997;53.974;11.670;2023-02-05T16:51:57;10.63;;;5.78;;
73693;SDS011;61997;53.974;11.670;2023-02-05T16:54:30;10.57;;;5.75;;
73693;SDS011;61997;53.974;11.670;2023-02-05T16:59:32;11.23;;;6.03;;
73693;SDS011;61997;53.974;11.670;2023-02-05T17:02:00;10.93;;;5.55;;